createdAt,value
2022-10-20T00:01:42.814Z,4.95
2022-10-20T00:04:11.476Z,4.45
2022-10-20T00:06:43.409Z,4.82
2022-10-20T00:09:16.331Z,5.03
2022-10-20T00:11:50.699Z,4.80
2022-10-20T00:14:21.856Z,5.00
2022-10-20T00:16:50.319Z,4.50
2022-10-20T00:19:19.329Z,4.65
2022-10-20T00:21:48.293Z,4.97
2022-10-20T00:24:23.405Z,4.95
2022-10-20T00:26:53.604Z,5.00
2022-10-20T00:29:27.983Z,5.22
2022-10-20T00:31:56.856Z,5.18
2022-10-20T00:34:25.121Z,4.90
2022-10-20T00:36:53.349Z,4.90
2022-10-20T00:39:21.663Z,4.57
2022-10-20T00:41:51.429Z,4.68
2022-10-20T00:44:54.295Z,4.63
2022-10-20T00:47:31.778Z,4.97
2022-10-20T00:50:18.820Z,5.10
2022-10-20T00:52:50.812Z,4.47
2022-10-20T00:55:23.949Z,4.43
2022-10-20T00:57:54.802Z,3.97
2022-10-20T01:00:29.443Z,3.65
2022-10-20T01:03:04.171Z,4.45
2022-10-20T01:05:34.591Z,4.20
2022-10-20T01:08:06.505Z,3.75
2022-10-20T01:10:42.296Z,4.22
2022-10-20T01:13:32.136Z,4.00
2022-10-20T01:16:18.824Z,3.97
2022-10-20T01:19:04.448Z,4.40
2022-10-20T01:21:57.888Z,4.03
2022-10-20T01:24:54.167Z,3.95
2022-10-20T01:27:48.549Z,4.20
2022-10-20T01:30:21.464Z,4.00
2022-10-20T01:33:12.431Z,3.85
2022-10-20T01:35:47.832Z,4.37
2022-10-20T01:38:22.782Z,3.88
2022-10-20T01:40:55.796Z,3.85
2022-10-20T01:43:28.338Z,3.85
2022-10-20T01:46:00.109Z,4.20
2022-10-20T01:48:38.737Z,4.28
2022-10-20T01:51:08.172Z,4.10
2022-10-20T01:53:37.058Z,4.07
2022-10-20T01:56:06.561Z,3.72
2022-10-20T01:59:10.516Z,4.05
2022-10-20T02:01:56.329Z,3.95
2022-10-20T02:04:35.419Z,4.35
2022-10-20T02:07:15.830Z,4.18
2022-10-20T02:09:50.696Z,4.65
2022-10-20T02:12:27.607Z,4.28
2022-10-20T02:14:57.637Z,4.45
2022-10-20T02:17:28.202Z,4.57
2022-10-20T02:19:59.558Z,3.97
2022-10-20T02:22:29.994Z,4.45
2022-10-20T02:25:06.435Z,4.45
2022-10-20T02:27:40.603Z,4.43
2022-10-20T02:30:11.951Z,4.45
2022-10-20T02:32:44.269Z,4.30
2022-10-20T02:35:17.457Z,4.57
2022-10-20T02:37:54.669Z,4.32
2022-10-20T02:40:24.164Z,4.32
2022-10-20T02:42:53.039Z,4.07
2022-10-20T02:45:24.409Z,4.30
2022-10-20T02:47:57.723Z,4.30
2022-10-20T02:50:28.787Z,4.30
2022-10-20T02:52:57.717Z,4.07
2022-10-20T02:55:34.660Z,4.00
2022-10-20T02:58:04.098Z,4.13
2022-10-20T03:00:32.601Z,4.13
2022-10-20T03:03:05.338Z,4.88
2022-10-20T03:05:36.615Z,4.20
2022-10-20T03:08:06.737Z,4.03
2022-10-20T03:10:39.914Z,4.65
2022-10-20T03:13:10.022Z,4.50
2022-10-20T03:15:42.216Z,4.55
2022-10-20T03:18:13.557Z,4.50
2022-10-20T03:20:43.149Z,3.80
2022-10-20T03:23:15.177Z,4.20
2022-10-20T03:25:48.663Z,4.00
2022-10-20T03:28:19.086Z,3.88
2022-10-20T03:30:47.856Z,3.67
2022-10-20T03:33:17.601Z,3.60
2022-10-20T03:35:47.393Z,3.65
2022-10-20T03:38:19.430Z,3.40
2022-10-20T03:43:45.362Z,3.13
2022-10-20T03:46:16.153Z,3.33
2022-10-20T03:49:00.065Z,3.08
2022-10-20T03:51:32.269Z,3.25
2022-10-20T03:54:05.847Z,3.78
2022-10-20T03:56:35.694Z,3.60
2022-10-20T03:59:08.870Z,3.63
2022-10-20T04:01:39.415Z,3.45
2022-10-20T04:07:08.836Z,3.67
2022-10-20T04:09:38.708Z,3.30
2022-10-20T04:12:08.728Z,3.50
2022-10-20T04:14:38.657Z,3.03
2022-10-20T04:17:09.431Z,3.50
2022-10-20T04:19:47.502Z,3.50
2022-10-20T04:22:16.377Z,3.50
2022-10-20T04:24:45.219Z,3.60
2022-10-20T04:27:15.093Z,3.70
2022-10-20T04:29:45.064Z,3.38
2022-10-20T04:32:14.434Z,4.10
2022-10-20T04:34:44.487Z,3.67
2022-10-20T04:37:13.484Z,3.67
2022-10-20T04:39:42.533Z,3.58
2022-10-20T04:42:10.766Z,3.85
2022-10-20T04:44:39.011Z,3.38
2022-10-20T04:47:08.868Z,3.85
2022-10-20T04:49:38.100Z,2.80
2022-10-20T04:52:11.707Z,3.13
2022-10-20T04:54:39.966Z,3.22
2022-10-20T04:57:08.447Z,3.20
2022-10-20T04:59:36.727Z,3.25
2022-10-20T05:02:05.225Z,2.90
2022-10-20T05:04:33.447Z,2.80
2022-10-20T05:07:01.640Z,2.72
2022-10-20T05:09:32.407Z,2.80
2022-10-20T05:12:00.993Z,2.70
2022-10-20T05:14:29.385Z,3.20
2022-10-20T05:16:58.705Z,3.17
2022-10-20T05:19:27.868Z,2.97
2022-10-20T05:21:56.997Z,2.90
2022-10-20T05:24:30.160Z,3.08
2022-10-20T05:27:01.802Z,3.13
2022-10-20T05:29:30.257Z,3.20
2022-10-20T05:32:01.203Z,3.13
2022-10-20T05:34:30.496Z,3.08
2022-10-20T05:37:03.186Z,3.58
2022-10-20T05:39:34.123Z,3.97
2022-10-20T05:42:08.543Z,3.50
2022-10-20T05:44:37.369Z,3.65
2022-10-20T05:47:05.933Z,3.63
2022-10-20T05:49:34.247Z,3.92
2022-10-20T05:52:02.703Z,3.80
2022-10-20T05:54:31.571Z,3.83
2022-10-20T05:57:01.997Z,3.85
2022-10-20T05:59:36.625Z,3.88
2022-10-20T06:02:05.222Z,4.57
2022-10-20T06:04:34.446Z,4.20
2022-10-20T06:07:06.026Z,4.10
2022-10-20T06:12:03.580Z,3.67
2022-10-20T06:14:37.039Z,3.63
2022-10-20T06:17:12.879Z,4.10
2022-10-20T06:19:41.287Z,3.53
2022-10-20T06:22:10.639Z,3.92
2022-10-20T06:24:41.851Z,4.03
2022-10-20T06:27:10.824Z,5.10
2022-10-20T06:29:42.148Z,4.97
2022-10-20T06:32:11.509Z,5.07
2022-10-20T06:34:55.994Z,4.82
2022-10-20T06:37:26.362Z,4.53
2022-10-20T06:39:57.614Z,4.63
2022-10-20T06:42:28.803Z,5.03
2022-10-20T06:45:01.411Z,4.40
2022-10-20T06:47:32.095Z,4.50
2022-10-20T06:53:16.209Z,4.57
2022-10-20T06:56:01.311Z,5.00
2022-10-20T06:58:32.142Z,3.40
2022-10-20T07:01:05.550Z,3.50
2022-10-20T07:03:39.235Z,2.25
2022-10-20T07:06:09.138Z,2.30
2022-10-20T07:08:38.013Z,2.35
2022-10-20T07:11:08.252Z,3.20
2022-10-20T07:13:37.770Z,4.60
2022-10-20T07:16:09.894Z,5.30
2022-10-20T07:18:39.314Z,5.25
2022-10-20T07:21:09.616Z,5.53
2022-10-20T07:23:38.448Z,5.63
2022-10-20T07:26:10.273Z,5.63
2022-10-20T07:28:41.430Z,5.88
2022-10-20T07:31:13.635Z,7.03
2022-10-20T07:33:43.543Z,7.03
2022-10-20T07:36:16.439Z,6.68
2022-10-20T07:38:45.434Z,7.18
2022-10-20T07:41:23.362Z,7.20
2022-10-20T07:43:52.142Z,6.45
2022-10-20T07:46:22.095Z,6.65
2022-10-20T07:48:50.769Z,7.53
2022-10-20T07:51:29.449Z,6.80
2022-10-20T07:54:01.150Z,7.32
2022-10-20T07:56:31.936Z,7.07
2022-10-20T07:59:01.091Z,7.13
2022-10-20T08:01:31.689Z,7.68
2022-10-20T08:04:01.474Z,7.30
2022-10-20T08:06:43.737Z,7.05
2022-10-20T08:09:13.902Z,8.35
2022-10-20T08:11:43.878Z,7.63
2022-10-20T08:14:13.603Z,7.50
2022-10-20T08:16:51.698Z,7.53
2022-10-20T08:22:05.652Z,6.70
2022-10-20T08:30:22.421Z,5.85
2022-10-20T08:32:55.067Z,6.30
2022-10-20T08:35:25.737Z,6.68
2022-10-20T08:37:55.281Z,7.00
2022-10-20T08:40:30.212Z,6.97
2022-10-20T08:45:42.691Z,6.55
2022-10-20T08:48:23.067Z,6.95
2022-10-20T08:50:58.244Z,6.70
2022-10-20T08:53:29.238Z,7.95
2022-10-20T08:55:59.238Z,6.88
2022-10-20T08:58:28.747Z,7.53
2022-10-20T09:00:58.863Z,7.72
2022-10-20T09:03:32.683Z,7.70
2022-10-20T09:06:09.107Z,7.43
2022-10-20T09:08:39.550Z,7.63
2022-10-20T09:11:10.292Z,7.18
2022-10-20T09:13:41.409Z,7.47
2022-10-20T09:16:27.175Z,7.47
2022-10-20T09:19:21.199Z,7.60
2022-10-20T09:21:55.943Z,7.47
2022-10-20T09:24:30.859Z,8.10
2022-10-20T09:27:21.208Z,7.90
2022-10-20T09:29:50.099Z,7.85
2022-10-20T09:32:46.654Z,7.82
2022-10-20T09:38:28.998Z,7.97
2022-10-20T09:41:09.195Z,8.43
2022-10-20T09:43:50.035Z,7.78
2022-10-20T09:46:23.575Z,8.13
2022-10-20T09:48:53.607Z,7.63
2022-10-20T09:51:29.573Z,8.32
2022-10-20T09:54:14.093Z,7.43
2022-10-20T09:56:43.796Z,8.68
2022-10-20T09:59:22.381Z,7.75
2022-10-20T10:01:58.860Z,8.50
2022-10-20T10:04:34.481Z,8.00
2022-10-20T10:07:05.496Z,8.73
2022-10-20T10:09:36.299Z,8.10
2022-10-20T10:12:06.666Z,7.57
2022-10-20T10:14:37.577Z,8.02
2022-10-20T10:17:06.135Z,8.50
2022-10-20T10:19:35.846Z,8.02
2022-10-20T10:22:06.132Z,9.30
2022-10-20T10:24:47.712Z,7.60
2022-10-20T10:29:52.459Z,7.63
2022-10-20T10:32:26.000Z,7.78
2022-10-20T10:35:24.397Z,8.05
2022-10-20T10:38:07.494Z,8.07
2022-10-20T10:40:43.582Z,7.53
2022-10-20T10:43:44.899Z,7.70
2022-10-20T10:46:27.035Z,7.88
2022-10-20T10:52:32.286Z,7.47
2022-10-20T10:55:21.326Z,8.38
2022-10-20T10:58:11.287Z,7.70
2022-10-20T11:00:46.928Z,7.22
2022-10-20T11:03:39.793Z,7.70
2022-10-20T11:06:19.712Z,8.00
2022-10-20T11:09:21.440Z,7.68
2022-10-20T11:12:07.537Z,7.68
2022-10-20T11:14:48.632Z,7.40
2022-10-20T11:17:33.628Z,7.75
2022-10-20T11:20:18.721Z,7.53
2022-10-20T11:23:03.200Z,7.68
2022-10-20T11:25:37.353Z,7.82
2022-10-20T11:28:16.022Z,8.10
2022-10-20T11:30:44.828Z,7.85
2022-10-20T11:33:19.223Z,7.43
2022-10-20T11:35:53.091Z,8.07
2022-10-20T11:38:31.521Z,7.63
2022-10-20T11:41:05.974Z,7.22
2022-10-20T11:43:38.925Z,6.65
2022-10-20T11:46:12.711Z,7.47
2022-10-20T11:48:46.521Z,6.72
2022-10-20T11:51:41.336Z,7.53
2022-10-20T11:54:52.944Z,7.45
2022-10-20T11:57:31.717Z,7.22
2022-10-20T12:00:17.481Z,7.57
2022-10-20T12:03:19.689Z,8.45
2022-10-20T12:06:10.396Z,7.97
2022-10-20T12:09:09.107Z,8.02
2022-10-20T12:11:43.547Z,8.35
2022-10-20T12:14:28.499Z,7.97
2022-10-20T12:17:16.809Z,7.55
2022-10-20T12:19:45.873Z,7.93
2022-10-20T12:22:41.110Z,7.63
2022-10-20T12:25:44.956Z,7.80
2022-10-20T12:28:42.676Z,8.38
2022-10-20T12:31:12.542Z,8.18
2022-10-20T12:34:02.281Z,8.00
2022-10-20T12:36:36.228Z,8.15
2022-10-20T12:39:20.286Z,8.55
2022-10-20T12:42:01.470Z,7.95
2022-10-20T12:44:33.374Z,7.65
2022-10-20T12:47:08.514Z,8.25
2022-10-20T12:49:40.310Z,8.35
2022-10-20T12:52:18.079Z,7.75
2022-10-20T12:54:48.687Z,7.90
2022-10-20T12:57:32.036Z,7.90
2022-10-20T13:00:00.607Z,8.25
2022-10-20T13:02:35.358Z,8.20
2022-10-20T13:05:25.166Z,7.55
2022-10-20T13:08:24.815Z,8.18
2022-10-20T13:10:55.292Z,8.02
2022-10-20T13:13:50.416Z,8.52
2022-10-20T13:16:24.775Z,8.15
2022-10-20T13:18:55.661Z,7.50
2022-10-20T13:21:35.333Z,7.95
2022-10-20T13:24:10.733Z,7.82
2022-10-20T13:26:46.554Z,8.07
2022-10-20T13:29:21.597Z,7.20
2022-10-20T13:32:03.809Z,7.68
2022-10-20T13:34:44.878Z,7.22
2022-10-20T13:37:30.370Z,7.65
2022-10-20T13:40:12.544Z,7.75
2022-10-20T13:42:52.593Z,8.10
2022-10-20T13:45:31.645Z,8.02
2022-10-20T13:48:14.945Z,7.82
2022-10-20T13:51:03.196Z,7.75
2022-10-20T13:53:34.897Z,7.65
2022-10-20T13:56:07.095Z,6.97
2022-10-20T13:58:36.454Z,7.68
2022-10-20T14:01:07.297Z,8.00
2022-10-20T14:03:44.685Z,7.20
2022-10-20T14:09:18.602Z,8.80
2022-10-20T14:11:48.438Z,6.43
2022-10-20T14:14:19.702Z,5.57
2022-10-20T14:16:53.467Z,4.93
2022-10-20T14:19:27.709Z,4.00
2022-10-20T14:21:57.949Z,4.00
2022-10-20T14:24:33.071Z,4.40
2022-10-20T14:27:03.818Z,3.75
2022-10-20T14:29:35.003Z,7.22
2022-10-20T14:32:03.561Z,8.15
2022-10-20T14:34:35.983Z,7.97
2022-10-20T14:37:08.072Z,8.73
2022-10-20T14:39:39.467Z,8.30
2022-10-20T14:42:22.480Z,10.52
2022-10-20T14:44:52.078Z,9.32
2022-10-20T14:47:22.052Z,10.75
2022-10-20T14:49:55.465Z,10.57
2022-10-20T14:52:37.359Z,10.95
2022-10-20T14:55:43.902Z,9.93
2022-10-20T14:58:34.343Z,9.85
2022-10-20T15:01:17.322Z,9.90
2022-10-20T15:03:45.809Z,10.65
2022-10-20T15:06:17.966Z,12.48
2022-10-20T15:08:55.180Z,10.68
2022-10-20T15:11:27.121Z,11.73
2022-10-20T15:13:59.095Z,13.35
2022-10-20T15:16:36.602Z,10.13
2022-10-20T15:19:32.220Z,10.52
2022-10-20T15:22:03.581Z,10.57
2022-10-20T15:24:31.824Z,9.93
2022-10-20T15:27:02.950Z,11.20
2022-10-20T15:29:31.950Z,10.07
2022-10-20T15:32:00.714Z,10.85
2022-10-20T15:34:28.983Z,10.73
2022-10-20T15:36:57.221Z,10.15
2022-10-20T15:39:25.495Z,10.00
2022-10-20T15:41:54.727Z,10.40
2022-10-20T15:44:24.557Z,10.70
2022-10-20T15:46:54.926Z,10.15
2022-10-20T15:49:24.122Z,10.10
2022-10-20T15:51:52.672Z,10.73
2022-10-20T15:54:22.530Z,9.73
2022-10-20T15:56:50.798Z,9.95
2022-10-20T15:59:19.043Z,11.45
2022-10-20T16:01:48.616Z,9.75
2022-10-20T16:04:23.267Z,10.35
2022-10-20T16:06:57.669Z,10.52
2022-10-20T16:09:28.785Z,9.98
2022-10-20T16:11:57.093Z,10.38
2022-10-20T16:14:25.528Z,10.77
2022-10-20T16:16:58.018Z,10.25
2022-10-20T16:19:26.779Z,10.63
2022-10-20T16:21:55.566Z,10.57
2022-10-20T16:24:24.085Z,10.52
2022-10-20T16:26:53.108Z,11.18
2022-10-20T16:29:22.111Z,10.90
2022-10-20T16:31:51.071Z,10.63
2022-10-20T16:34:21.208Z,10.90
2022-10-20T16:36:51.940Z,10.43
2022-10-20T16:39:20.874Z,10.88
2022-10-20T16:41:49.151Z,10.48
2022-10-20T16:44:18.033Z,11.68
2022-10-20T16:46:46.178Z,10.75
2022-10-20T16:49:14.358Z,10.93
2022-10-20T16:51:43.961Z,11.38
2022-10-20T16:54:12.469Z,10.85
2022-10-20T16:56:40.714Z,10.30
2022-10-20T16:59:09.130Z,11.68
2022-10-20T17:01:37.327Z,10.40
2022-10-20T17:04:06.962Z,11.73
2022-10-20T17:06:35.240Z,12.02
2022-10-20T17:09:05.286Z,12.20
2022-10-20T17:11:34.127Z,12.90
2022-10-20T17:14:02.322Z,12.38
2022-10-20T17:16:32.737Z,11.68
2022-10-20T17:19:02.819Z,12.05
2022-10-20T17:21:32.491Z,12.23
2022-10-20T17:24:01.599Z,13.15
2022-10-20T17:26:32.828Z,12.73
2022-10-20T17:29:02.507Z,15.10
2022-10-20T17:31:31.556Z,13.52
2022-10-20T17:34:00.427Z,13.20
2022-10-20T17:36:30.056Z,13.63
2022-10-20T17:39:00.622Z,12.15
2022-10-20T17:41:30.538Z,13.25
2022-10-20T17:44:01.027Z,12.20
2022-10-20T17:46:29.877Z,12.75
2022-10-20T17:48:58.062Z,13.38
2022-10-20T17:51:31.866Z,12.85
2022-10-20T17:54:03.238Z,14.98
2022-10-20T17:56:36.805Z,15.32
2022-10-20T17:59:08.001Z,14.43
2022-10-20T18:01:39.414Z,12.73
2022-10-20T18:04:10.203Z,12.13
2022-10-20T18:06:39.182Z,12.05
2022-10-20T18:09:10.886Z,11.32
2022-10-20T18:11:42.071Z,12.02
2022-10-20T18:14:10.552Z,11.43
2022-10-20T18:16:39.750Z,11.65
2022-10-20T18:19:09.539Z,11.40
2022-10-20T18:21:37.708Z,11.10
2022-10-20T18:24:08.387Z,11.38
2022-10-20T18:26:38.558Z,11.03
2022-10-20T18:29:11.202Z,11.05
2022-10-20T18:31:42.511Z,11.35
2022-10-20T18:34:13.629Z,10.52
2022-10-20T18:36:45.144Z,11.40
2022-10-20T18:39:15.487Z,10.77
2022-10-20T18:41:46.471Z,11.23
2022-10-20T18:44:18.600Z,12.00
2022-10-20T18:46:48.226Z,11.85
2022-10-20T18:49:19.757Z,11.23
2022-10-20T18:54:18.389Z,10.95
2022-10-20T18:56:47.065Z,11.70
2022-10-20T18:59:17.947Z,11.85
2022-10-20T19:01:48.308Z,12.75
2022-10-20T19:04:16.701Z,11.52
2022-10-20T19:06:46.640Z,11.65
2022-10-20T19:09:17.046Z,12.60
2022-10-20T19:11:46.245Z,11.60
2022-10-20T19:14:17.327Z,11.43
2022-10-20T19:16:48.750Z,12.05
2022-10-20T19:19:17.499Z,12.23
2022-10-20T19:21:46.138Z,11.68
2022-10-20T19:24:17.132Z,11.23
2022-10-20T19:26:56.980Z,12.25
2022-10-20T19:29:37.481Z,11.70
2022-10-20T19:32:07.420Z,11.95
2022-10-20T19:34:37.649Z,12.25
2022-10-20T19:37:06.720Z,12.13
2022-10-20T19:39:37.130Z,12.55
2022-10-20T19:42:07.115Z,12.63
2022-10-20T19:44:37.932Z,12.73
2022-10-20T19:47:08.206Z,13.18
2022-10-20T19:49:37.737Z,13.15
2022-10-20T19:52:06.948Z,12.82
2022-10-20T19:54:35.683Z,12.45
2022-10-20T19:57:04.571Z,13.10
2022-10-20T19:59:33.203Z,13.45
2022-10-20T20:02:03.444Z,13.10
2022-10-20T20:04:31.744Z,13.02
2022-10-20T20:07:02.308Z,11.85
2022-10-20T20:09:30.879Z,11.90
2022-10-20T20:12:01.624Z,12.35
2022-10-20T20:14:29.845Z,12.55
2022-10-20T20:16:58.176Z,12.98
2022-10-20T20:19:27.769Z,13.40
2022-10-20T20:21:55.962Z,12.25
2022-10-20T20:24:24.574Z,11.48
2022-10-20T20:26:53.174Z,9.95
2022-10-20T20:29:21.531Z,10.32
2022-10-20T20:31:50.268Z,10.82
2022-10-20T20:34:18.700Z,10.50
2022-10-20T20:36:49.834Z,11.10
2022-10-20T20:39:18.079Z,9.43
2022-10-20T20:41:47.130Z,9.02
2022-10-20T20:44:15.497Z,9.60
2022-10-20T20:46:44.003Z,9.38
2022-10-20T20:49:12.387Z,9.25
2022-10-20T20:51:41.110Z,8.10
2022-10-20T20:54:11.535Z,8.40
2022-10-20T20:56:39.930Z,8.45
2022-10-20T20:59:08.183Z,8.40
2022-10-20T21:01:36.544Z,7.78
2022-10-20T21:04:10.222Z,8.43
2022-10-20T21:07:00.611Z,7.72
2022-10-20T21:09:30.195Z,8.13
2022-10-20T21:11:58.466Z,7.05
2022-10-20T21:14:26.988Z,7.72
2022-10-20T21:16:55.207Z,6.88
2022-10-20T21:19:23.407Z,7.00
2022-10-20T21:21:57.520Z,7.35
2022-10-20T21:24:26.923Z,6.28
2022-10-20T21:26:56.890Z,7.18
2022-10-20T21:29:25.499Z,6.72
2022-10-20T21:31:55.179Z,6.40
2022-10-20T21:34:23.531Z,7.03
2022-10-20T21:36:51.891Z,6.07
2022-10-20T21:39:20.418Z,6.95
2022-10-20T21:41:51.578Z,5.80
2022-10-20T21:44:21.319Z,6.88
2022-10-20T21:46:51.108Z,6.50
2022-10-20T21:49:21.294Z,6.30
2022-10-20T21:51:52.950Z,5.75
2022-10-20T21:54:23.390Z,7.30
2022-10-20T21:56:52.079Z,6.25
2022-10-20T21:59:24.254Z,7.63
2022-10-20T22:01:54.024Z,6.68
2022-10-20T22:04:24.946Z,5.38
2022-10-20T22:06:53.489Z,6.60
2022-10-20T22:09:22.123Z,6.18
2022-10-20T22:11:52.826Z,5.40
2022-10-20T22:14:23.150Z,3.95
2022-10-20T22:16:51.855Z,6.72
2022-10-20T22:19:22.658Z,6.38
2022-10-20T22:21:54.195Z,8.98
2022-10-20T22:26:52.934Z,11.15
2022-10-20T22:29:24.662Z,9.93
2022-10-20T22:31:53.680Z,9.95
2022-10-20T22:34:22.029Z,11.80
2022-10-20T22:36:50.456Z,11.15
2022-10-20T22:39:18.770Z,12.20
2022-10-20T22:41:46.979Z,12.40
2022-10-20T22:44:15.251Z,10.40
2022-10-20T22:46:45.375Z,11.02
2022-10-20T22:49:14.444Z,12.45
2022-10-20T22:51:42.739Z,11.75
2022-10-20T22:54:11.088Z,11.13
2022-10-20T22:56:39.368Z,10.95
2022-10-20T22:59:07.571Z,10.77
2022-10-20T23:01:35.781Z,10.25
2022-10-20T23:04:05.487Z,10.40
2022-10-20T23:06:33.728Z,9.48
2022-10-20T23:09:01.984Z,8.88
2022-10-20T23:11:30.538Z,8.82
2022-10-20T23:13:58.697Z,8.57
2022-10-20T23:16:26.917Z,8.40
2022-10-20T23:18:55.803Z,7.30
2022-10-20T23:21:26.507Z,7.95
2022-10-20T23:23:54.824Z,6.32
2022-10-20T23:26:23.099Z,5.72
2022-10-20T23:28:51.383Z,5.78
2022-10-20T23:31:21.884Z,5.28
2022-10-20T23:33:52.184Z,5.70
2022-10-20T23:36:20.598Z,5.68
2022-10-20T23:38:50.518Z,7.18
2022-10-20T23:41:18.933Z,7.35
2022-10-20T23:43:48.090Z,7.13
2022-10-20T23:46:17.480Z,8.38
2022-10-20T23:48:45.729Z,9.02
2022-10-20T23:51:14.207Z,8.75
2022-10-20T23:53:42.667Z,8.43
2022-10-20T23:56:12.475Z,9.00
2022-10-20T23:58:41.887Z,8.65
